Time;durP1;ratioP1;P1;durP2;ratioP2;P2;SDS_P1;SDS_P2;PMS_P1;PMS_P2;Temp;Humidity;BMP_temperature;BMP_pressure;BME280_temperature;BME280_humidity;BME280_pressure;Samples;Min_cycle;Max_cycle;Signal;HPM_P1;HPM_P2
2021/12/09 00:01:53;;;;;;;50.30;26.53;;;5.00;99.90;;;;;;5053382;28;20733;-55
2021/12/09 00:04:28;;;;;;;47.87;27.10;;;4.90;99.90;;;;;;5053153;28;20212;-56
2021/12/09 00:07:00;;;;;;;48.57;25.20;;;4.80;99.90;;;;;;5053112;28;20245;-55
2021/12/09 00:09:28;;;;;;;52.60;27.40;;;4.80;99.90;;;;;;5052730;28;20209;-54
2021/12/09 00:11:57;;;;;;;44.07;25.63;;;4.80;99.90;;;;;;5053058;28;20231;-56
2021/12/09 00:14:28;;;;;;;63.07;36.77;;;4.80;99.90;;;;;;5052968;28;20208;-55
2021/12/09 00:16:59;;;;;;;66.83;36.37;;;4.80;99.90;;;;;;5052773;28;20716;-55
2021/12/09 00:19:27;;;;;;;52.27;34.03;;;4.80;99.90;;;;;;5052618;28;20652;-55
2021/12/09 00:21:59;;;;;;;54.30;34.37;;;4.80;99.90;;;;;;5053027;28;20259;-55
2021/12/09 00:24:27;;;;;;;49.47;31.87;;;4.90;99.90;;;;;;5052629;28;20285;-54
2021/12/09 00:26:55;;;;;;;55.57;34.90;;;4.90;99.90;;;;;;5053054;28;20271;-54
2021/12/09 00:29:24;;;;;;;52.53;31.10;;;5.00;99.90;;;;;;5052459;28;20667;-53
2021/12/09 00:31:52;;;;;;;48.87;28.47;;;5.00;99.90;;;;;;5052434;28;20235;-55
2021/12/09 00:34:29;;;;;;;47.83;26.43;;;5.00;99.90;;;;;;5052110;28;20248;-55
2021/12/09 00:37:03;;;;;;;44.30;25.33;;;5.00;99.90;;;;;;5052422;28;20281;-56
2021/12/09 00:39:31;;;;;;;45.83;26.30;;;5.00;99.90;;;;;;5052741;28;20595;-55
2021/12/09 00:41:59;;;;;;;44.53;27.43;;;5.00;99.90;;;;;;5052561;28;20272;-55
2021/12/09 00:44:27;;;;;;;45.93;27.03;;;4.90;99.90;;;;;;5052308;28;20631;-56
2021/12/09 00:46:55;;;;;;;38.63;23.10;;;5.00;99.90;;;;;;5051008;28;20275;-55
2021/12/09 00:49:23;;;;;;;43.60;25.77;;;4.90;99.90;;;;;;5052739;28;20252;-55
2021/12/09 00:51:51;;;;;;;47.37;26.27;;;5.00;99.90;;;;;;5051841;28;20261;-54
2021/12/09 00:54:21;;;;;;;44.27;26.17;;;5.00;99.90;;;;;;5051932;28;20259;-54
2021/12/09 00:56:49;;;;;;;40.63;24.73;;;4.90;99.90;;;;;;5051669;28;20328;-55
2021/12/09 00:59:17;;;;;;;40.00;24.77;;;5.00;99.90;;;;;;5052188;28;20708;-54
2021/12/09 01:01:45;;;;;;;41.43;25.00;;;4.90;99.90;;;;;;5051736;28;20262;-55
2021/12/09 01:04:14;;;;;;;37.00;23.33;;;5.00;99.90;;;;;;5052197;28;20290;-55
2021/12/09 01:06:42;;;;;;;33.80;21.23;;;4.90;99.90;;;;;;5051660;28;20229;-55
2021/12/09 01:09:10;;;;;;;43.63;23.53;;;5.00;99.90;;;;;;5051847;28;20211;-55
2021/12/09 01:11:40;;;;;;;44.93;25.43;;;4.90;99.90;;;;;;5051864;28;20316;-55
2021/12/09 01:14:08;;;;;;;41.13;23.23;;;4.90;99.90;;;;;;5052268;28;20233;-61
2021/12/09 01:16:36;;;;;;;38.63;22.97;;;4.90;99.90;;;;;;5051664;28;20697;-54
2021/12/09 01:19:05;;;;;;;37.23;22.70;;;5.00;99.90;;;;;;5051807;28;20242;-55
2021/12/09 01:21:33;;;;;;;35.33;20.97;;;5.00;99.90;;;;;;5051702;28;20681;-54
2021/12/09 01:24:01;;;;;;;37.10;22.77;;;4.90;99.90;;;;;;5051494;28;20268;-54
2021/12/09 01:26:30;;;;;;;38.57;22.53;;;4.90;99.90;;;;;;5051764;28;20281;-54
2021/12/09 01:29:03;;;;;;;39.30;23.20;;;4.90;99.90;;;;;;5051394;28;20208;-55
2021/12/09 01:31:35;;;;;;;40.50;23.70;;;4.90;99.90;;;;;;5051689;28;20267;-55
2021/12/09 01:34:04;;;;;;;42.20;22.60;;;4.80;99.90;;;;;;5051177;28;20252;-56
2021/12/09 01:36:34;;;;;;;42.67;22.30;;;4.80;99.90;;;;;;5051609;28;20229;-55
2021/12/09 01:39:05;;;;;;;38.87;22.70;;;4.90;99.90;;;;;;5051248;28;20944;-54
2021/12/09 01:41:33;;;;;;;38.60;22.93;;;4.90;99.90;;;;;;5051450;28;20271;-56
2021/12/09 01:44:02;;;;;;;39.47;22.53;;;4.90;99.90;;;;;;5051050;28;20241;-54
2021/12/09 01:46:30;;;;;;;41.13;23.47;;;4.90;99.90;;;;;;5051443;28;20620;-54
2021/12/09 01:48:59;;;;;;;40.63;23.07;;;4.90;99.90;;;;;;5051055;28;20868;-54
2021/12/09 01:51:27;;;;;;;36.57;22.20;;;4.90;99.90;;;;;;5051063;28;20657;-55
2021/12/09 01:53:55;;;;;;;44.53;25.27;;;4.90;99.90;;;;;;5051575;28;20288;-55
2021/12/09 01:56:25;;;;;;;42.43;27.30;;;4.90;99.90;;;;;;5050871;28;20259;-54
2021/12/09 01:58:56;;;;;;;36.57;22.23;;;4.90;99.90;;;;;;5050839;28;20250;-56
2021/12/09 02:01:26;;;;;;;37.77;21.27;;;4.80;99.90;;;;;;5050446;28;20270;-54
2021/12/09 02:03:55;;;;;;;39.40;23.63;;;4.90;99.90;;;;;;5051064;28;20246;-55
2021/12/09 02:06:24;;;;;;;37.40;27.87;;;4.80;99.90;;;;;;5050652;28;20686;-55
2021/12/09 02:08:52;;;;;;;36.20;23.17;;;4.80;99.90;;;;;;5051194;28;20212;-56
2021/12/09 02:11:21;;;;;;;38.77;22.83;;;4.80;99.90;;;;;;5050158;28;20230;-54
2021/12/09 02:13:51;;;;;;;34.70;20.90;;;4.80;99.90;;;;;;5051165;28;20209;-55
2021/12/09 02:16:20;;;;;;;39.10;22.57;;;4.80;99.90;;;;;;5050364;28;20734;-54
2021/12/09 02:18:50;;;;;;;43.17;22.83;;;4.80;99.90;;;;;;5050835;28;20209;-59
2021/12/09 02:21:21;;;;;;;36.90;20.97;;;4.80;99.90;;;;;;5050476;28;20256;-55
2021/12/09 02:23:51;;;;;;;35.00;21.07;;;4.80;99.90;;;;;;5050530;28;20212;-54
2021/12/09 02:26:27;;;;;;;36.00;20.80;;;4.80;99.90;;;;;;5050891;28;20229;-55
2021/12/09 02:28:57;;;;;;;36.80;21.70;;;4.80;99.90;;;;;;5050633;28;20625;-54
2021/12/09 02:31:26;;;;;;;34.00;21.87;;;4.80;99.90;;;;;;5050697;28;20257;-54
2021/12/09 02:33:55;;;;;;;36.63;21.03;;;4.80;99.90;;;;;;5050340;28;20212;-55
2021/12/09 02:36:25;;;;;;;35.73;20.47;;;4.80;99.90;;;;;;5050605;28;20258;-54
2021/12/09 02:38:54;;;;;;;35.57;19.90;;;4.70;99.90;;;;;;5050684;28;20207;-54
2021/12/09 02:41:24;;;;;;;33.70;19.23;;;4.70;99.90;;;;;;5050305;28;20263;-55
2021/12/09 02:43:56;;;;;;;34.30;19.70;;;4.60;99.90;;;;;;5050360;28;20677;-54
2021/12/09 02:46:25;;;;;;;38.60;20.70;;;4.60;99.90;;;;;;5050640;28;20220;-54
2021/12/09 02:48:54;;;;;;;30.17;18.63;;;4.50;99.90;;;;;;5050001;28;20209;-55
2021/12/09 02:51:24;;;;;;;32.57;19.37;;;4.50;99.90;;;;;;5050335;28;20261;-56
2021/12/09 02:53:52;;;;;;;31.60;18.23;;;4.50;99.90;;;;;;5050334;28;20200;-54
2021/12/09 02:56:21;;;;;;;36.20;20.30;;;4.50;99.90;;;;;;5050281;28;20672;-53
2021/12/09 02:58:49;;;;;;;32.87;20.10;;;4.50;99.90;;;;;;5049930;28;20246;-55
2021/12/09 03:01:21;;;;;;;31.17;19.23;;;4.50;99.90;;;;;;5050015;28;20731;-55
2021/12/09 03:03:55;;;;;;;29.10;19.43;;;4.50;99.90;;;;;;5050404;28;20654;-55
2021/12/09 03:06:30;;;;;;;34.97;19.97;;;4.50;99.90;;;;;;5050543;28;20262;-54
2021/12/09 03:09:01;;;;;;;33.53;19.27;;;4.50;99.90;;;;;;5050923;28;20371;-57
2021/12/09 03:11:30;;;;;;;31.43;19.23;;;4.50;99.90;;;;;;5053802;28;20271;-55
2021/12/09 03:13:59;;;;;;;32.13;18.10;;;4.50;99.90;;;;;;5054277;28;20213;-55
2021/12/09 03:16:27;;;;;;;30.03;17.77;;;4.50;99.90;;;;;;5053745;28;20234;-53
2021/12/09 03:18:59;;;;;;;32.30;17.80;;;4.50;99.90;;;;;;5054211;28;20205;-54
2021/12/09 03:21:31;;;;;;;28.77;18.33;;;4.50;99.90;;;;;;5053971;28;20224;-54
2021/12/09 03:24:01;;;;;;;27.60;16.63;;;4.50;99.90;;;;;;5054009;28;20261;-55
2021/12/09 03:26:32;;;;;;;28.87;17.13;;;4.50;99.90;;;;;;5053784;28;20204;-54
2021/12/09 03:29:06;;;;;;;34.97;18.47;;;4.60;99.90;;;;;;5053865;28;20246;-55
2021/12/09 03:31:34;;;;;;;33.23;17.97;;;4.50;99.90;;;;;;5053442;28;20226;-55
2021/12/09 03:34:02;;;;;;;30.53;18.00;;;4.50;99.90;;;;;;5053999;28;20215;-54
2021/12/09 03:36:31;;;;;;;28.20;16.50;;;4.40;99.90;;;;;;5053301;28;20241;-55
2021/12/09 03:39:01;;;;;;;35.13;16.87;;;4.40;99.90;;;;;;5053814;28;20299;-54
2021/12/09 03:41:30;;;;;;;27.27;16.10;;;4.40;99.90;;;;;;5033697;28;20250;-56
2021/12/09 03:43:58;;;;;;;27.70;16.40;;;4.40;99.90;;;;;;5033859;28;20236;-54
2021/12/09 03:46:26;;;;;;;29.13;16.27;;;4.40;99.90;;;;;;5033633;28;20227;-54
2021/12/09 03:48:54;;;;;;;29.93;16.33;;;4.40;99.90;;;;;;5033429;28;20199;-55
2021/12/09 03:51:23;;;;;;;24.80;14.90;;;4.40;99.90;;;;;;5033469;28;20881;-54
2021/12/09 03:53:53;;;;;;;27.20;16.53;;;4.40;99.90;;;;;;5049864;28;20290;-54
2021/12/09 03:56:21;;;;;;;23.50;14.73;;;4.40;99.90;;;;;;5053765;28;20547;-55
2021/12/09 03:58:49;;;;;;;30.13;16.37;;;4.40;99.90;;;;;;5053038;28;20317;-56
2021/12/09 04:01:17;;;;;;;31.70;17.20;;;4.50;99.90;;;;;;5052938;28;20257;-56
2021/12/09 04:03:45;;;;;;;26.77;15.93;;;4.50;99.90;;;;;;5052985;28;20217;-55
2021/12/09 04:06:16;;;;;;;27.03;15.63;;;4.40;99.90;;;;;;5053290;28;20634;-54
2021/12/09 04:08:44;;;;;;;25.43;15.47;;;4.40;99.90;;;;;;5053068;28;20244;-55
2021/12/09 04:11:13;;;;;;;31.70;17.60;;;4.40;99.90;;;;;;5052876;28;20723;-54
2021/12/09 04:13:41;;;;;;;33.33;16.93;;;4.40;99.90;;;;;;5052701;28;20263;-55
2021/12/09 04:16:10;;;;;;;34.03;17.43;;;4.40;99.90;;;;;;5052815;28;20239;-55
2021/12/09 04:18:41;;;;;;;26.77;15.60;;;4.50;99.90;;;;;;5053179;28;20298;-54
2021/12/09 04:21:10;;;;;;;29.67;16.63;;;4.50;99.90;;;;;;5051723;28;20230;-53
2021/12/09 04:23:38;;;;;;;29.57;15.83;;;4.50;99.90;;;;;;5052814;28;20264;-54
2021/12/09 04:26:06;;;;;;;24.53;14.83;;;4.40;99.90;;;;;;5052599;28;20622;-54
2021/12/09 04:28:37;;;;;;;30.13;15.40;;;4.40;99.90;;;;;;5053060;28;20246;-56
2021/12/09 04:31:06;;;;;;;24.77;14.07;;;4.40;99.90;;;;;;5052073;28;20727;-56
2021/12/09 04:33:35;;;;;;;24.43;14.37;;;4.40;99.90;;;;;;5052950;28;20251;-54
2021/12/09 04:36:03;;;;;;;26.00;15.67;;;4.40;99.90;;;;;;5053013;28;20583;-55
2021/12/09 04:38:32;;;;;;;28.13;15.40;;;4.40;99.90;;;;;;5052609;28;20272;-54
2021/12/09 04:41:00;;;;;;;26.77;15.10;;;4.40;99.90;;;;;;5052123;28;20771;-54
2021/12/09 04:43:28;;;;;;;27.87;17.23;;;4.40;99.90;;;;;;5052814;28;20236;-54
2021/12/09 04:45:59;;;;;;;32.77;17.93;;;4.50;99.90;;;;;;5051974;28;20264;-55
2021/12/09 04:48:27;;;;;;;26.73;17.27;;;4.50;99.90;;;;;;5052416;28;20240;-54
2021/12/09 04:50:55;;;;;;;29.57;18.47;;;4.40;99.90;;;;;;5052030;28;20280;-55
2021/12/09 04:53:24;;;;;;;35.33;18.50;;;4.40;99.90;;;;;;5052309;28;20204;-55
2021/12/09 04:55:52;;;;;;;28.67;17.53;;;4.40;99.90;;;;;;5052409;28;20210;-55
2021/12/09 04:58:20;;;;;;;31.13;18.63;;;4.40;99.90;;;;;;5051764;28;20314;-54
2021/12/09 05:00:49;;;;;;;29.67;18.17;;;4.40;99.90;;;;;;5052116;28;20635;-54
2021/12/09 05:03:19;;;;;;;38.27;20.47;;;4.40;99.90;;;;;;5051938;28;20210;-55
2021/12/09 05:05:49;;;;;;;37.53;22.50;;;4.40;99.90;;;;;;5052417;28;20238;-56
2021/12/09 05:08:23;;;;;;;47.40;24.13;;;4.40;99.90;;;;;;5051700;28;20200;-56
2021/12/09 05:11:00;;;;;;;37.23;22.83;;;4.40;99.90;;;;;;5052252;28;20246;-55
2021/12/09 05:13:31;;;;;;;39.27;22.43;;;4.40;99.90;;;;;;5051337;28;20693;-55
2021/12/09 05:16:00;;;;;;;48.13;24.83;;;4.40;99.90;;;;;;5051633;28;20258;-54
2021/12/09 05:18:33;;;;;;;42.90;22.20;;;4.40;99.90;;;;;;5052091;28;20283;-53
2021/12/09 05:21:02;;;;;;;39.40;23.33;;;4.50;99.90;;;;;;5051864;28;20221;-54
2021/12/09 05:23:31;;;;;;;86.87;25.30;;;4.40;99.90;;;;;;5051573;28;20235;-55
2021/12/09 05:26:01;;;;;;;43.13;24.67;;;4.50;99.90;;;;;;5051318;28;20286;-54
2021/12/09 05:28:33;;;;;;;40.23;23.63;;;4.50;99.90;;;;;;5051548;28;20198;-54
2021/12/09 05:33:51;;;;;;;36.83;20.57;;;4.50;99.90;;;;;;5051165;28;20207;-55
2021/12/09 05:36:19;;;;;;;34.47;20.03;;;4.50;99.90;;;;;;5051178;28;20203;-55
2021/12/09 05:38:47;;;;;;;35.27;20.80;;;4.50;99.90;;;;;;5051242;28;20663;-54
2021/12/09 05:41:15;;;;;;;37.03;20.57;;;4.50;99.90;;;;;;5050906;28;20718;-54
2021/12/09 05:43:43;;;;;;;35.50;20.50;;;4.50;99.90;;;;;;5051206;28;20700;-54
2021/12/09 05:46:12;;;;;;;32.73;20.83;;;4.50;99.90;;;;;;5051024;28;20244;-54
2021/12/09 05:48:41;;;;;;;33.13;19.77;;;4.50;99.90;;;;;;5051456;28;20197;-55
2021/12/09 05:51:11;;;;;;;35.90;19.93;;;4.50;99.90;;;;;;5051107;28;20231;-55
2021/12/09 05:53:39;;;;;;;31.13;18.47;;;4.50;99.90;;;;;;5051571;28;20194;-53
2021/12/09 05:56:07;;;;;;;34.70;20.17;;;4.50;99.90;;;;;;5051228;28;20208;-54
2021/12/09 05:58:36;;;;;;;35.07;19.87;;;4.50;99.90;;;;;;5051152;28;20316;-55
2021/12/09 06:01:04;;;;;;;32.00;19.10;;;4.50;99.90;;;;;;5050879;28;20279;-54
2021/12/09 06:03:33;;;;;;;39.00;20.17;;;4.50;99.90;;;;;;5051033;28;20733;-54
2021/12/09 06:06:07;;;;;;;36.73;18.83;;;4.50;99.90;;;;;;5051097;28;20223;-55
2021/12/09 06:08:38;;;;;;;36.27;20.33;;;4.50;99.90;;;;;;5051071;28;20249;-55
2021/12/09 06:11:10;;;;;;;32.97;18.87;;;4.40;99.90;;;;;;5050932;28;20298;-55
2021/12/09 06:13:38;;;;;;;35.43;19.67;;;4.30;99.90;;;;;;5051274;28;20254;-54
2021/12/09 06:16:08;;;;;;;33.47;18.03;;;4.30;99.90;;;;;;5051437;28;20223;-53
2021/12/09 06:18:36;;;;;;;30.97;17.43;;;4.10;99.90;;;;;;5052027;28;20324;-54
2021/12/09 06:21:06;;;;;;;29.90;17.67;;;4.10;99.90;;;;;;5051768;28;20646;-55
2021/12/09 06:23:34;;;;;;;26.10;16.23;;;4.00;99.90;;;;;;5051422;28;20691;-55
2021/12/09 06:26:05;;;;;;;30.37;16.93;;;4.00;99.90;;;;;;5051552;28;20202;-53
2021/12/09 06:28:33;;;;;;;28.17;18.13;;;3.90;99.90;;;;;;5050875;28;20218;-54
2021/12/09 06:31:04;;;;;;;35.03;17.57;;;3.90;99.90;;;;;;5050654;28;20237;-54
2021/12/09 06:33:32;;;;;;;29.17;16.07;;;3.80;99.90;;;;;;5050322;28;20623;-53
2021/12/09 06:36:00;;;;;;;30.47;16.80;;;3.80;99.90;;;;;;5051015;28;20235;-53
2021/12/09 06:38:28;;;;;;;26.67;16.60;;;3.80;99.90;;;;;;5050209;28;20311;-56
2021/12/09 06:40:57;;;;;;;28.97;16.00;;;3.70;99.90;;;;;;5050706;28;20261;-55
2021/12/09 06:43:27;;;;;;;24.30;14.30;;;3.70;99.90;;;;;;5050479;28;20730;-55
2021/12/09 06:45:56;;;;;;;26.30;15.13;;;3.70;99.90;;;;;;5054389;28;20317;-54
2021/12/09 06:48:24;;;;;;;29.57;17.10;;;3.70;99.90;;;;;;5054986;28;20201;-55
2021/12/09 06:50:52;;;;;;;34.80;17.30;;;3.60;99.90;;;;;;5054422;28;20227;-55
2021/12/09 06:53:20;;;;;;;29.57;14.80;;;3.60;99.90;;;;;;5054722;28;20240;-55
2021/12/09 06:55:49;;;;;;;28.90;15.33;;;3.50;99.90;;;;;;5054399;28;20237;-55
2021/12/09 06:58:18;;;;;;;25.43;14.77;;;3.50;99.90;;;;;;5054331;28;20618;-54
2021/12/09 07:00:49;;;;;;;29.67;16.30;;;3.50;99.90;;;;;;5053946;28;20229;-54
2021/12/09 07:03:17;;;;;;;26.40;15.40;;;3.50;99.90;;;;;;5054419;28;20728;-55
2021/12/09 07:05:46;;;;;;;30.83;15.57;;;3.40;99.90;;;;;;5054252;28;20721;-55
2021/12/09 07:08:15;;;;;;;25.70;14.67;;;3.30;99.90;;;;;;5054704;28;20229;-54
2021/12/09 07:10:43;;;;;;;27.63;15.37;;;3.30;99.90;;;;;;5053735;28;20705;-55
2021/12/09 07:13:12;;;;;;;25.30;13.10;;;3.30;99.90;;;;;;5054418;28;20252;-55
2021/12/09 07:15:40;;;;;;;26.63;15.50;;;3.40;99.90;;;;;;5053824;28;20248;-54
2021/12/09 07:18:09;;;;;;;28.90;16.93;;;3.30;99.90;;;;;;5054343;28;20216;-55
2021/12/09 07:20:38;;;;;;;25.23;14.30;;;3.30;99.90;;;;;;5053714;28;20797;-55
2021/12/09 07:23:06;;;;;;;25.23;15.23;;;3.30;99.90;;;;;;5054312;28;20233;-54
2021/12/09 07:25:34;;;;;;;22.83;14.40;;;3.20;99.90;;;;;;5054089;28;20248;-54
2021/12/09 07:28:03;;;;;;;24.40;14.13;;;3.30;99.90;;;;;;5053761;28;20233;-54
2021/12/09 07:30:31;;;;;;;24.77;15.03;;;3.30;99.90;;;;;;5053639;28;20748;-55
2021/12/09 07:32:59;;;;;;;23.03;14.20;;;3.40;99.90;;;;;;5053654;28;20744;-54
2021/12/09 07:35:30;;;;;;;22.90;14.40;;;3.40;99.90;;;;;;5054073;28;20249;-54
2021/12/09 07:37:58;;;;;;;21.70;13.83;;;3.30;99.90;;;;;;5053543;28;20734;-54
2021/12/09 07:40:27;;;;;;;24.17;15.73;;;3.40;99.90;;;;;;5053451;28;20255;-55
2021/12/09 07:42:55;;;;;;;24.13;15.20;;;3.50;99.90;;;;;;5053680;28;20206;-54
2021/12/09 07:45:24;;;;;;;23.93;16.40;;;3.50;99.90;;;;;;5053394;28;20260;-55
2021/12/09 07:47:52;;;;;;;31.00;18.23;;;3.60;99.90;;;;;;5053580;28;20206;-56
2021/12/09 07:50:22;;;;;;;29.97;17.30;;;3.60;99.90;;;;;;5053521;28;20248;-55
2021/12/09 07:52:52;;;;;;;30.03;17.87;;;3.70;99.90;;;;;;5053178;28;20229;-55
2021/12/09 07:55:22;;;;;;;34.73;20.60;;;3.70;99.90;;;;;;5053320;28;20237;-54
2021/12/09 07:57:50;;;;;;;83.83;21.93;;;3.70;99.90;;;;;;5038993;28;20713;-54
2021/12/09 08:00:20;;;;;;;28.87;17.07;;;3.80;99.90;;;;;;5052161;28;20271;-55
2021/12/09 08:02:50;;;;;;;36.73;19.90;;;3.80;99.90;;;;;;5053625;28;20212;-54
2021/12/09 08:05:19;;;;;;;35.77;24.67;;;3.80;99.90;;;;;;5052583;28;20245;-55
2021/12/09 08:07:48;;;;;;;37.03;22.30;;;3.80;99.90;;;;;;5053202;28;20252;-53
2021/12/09 08:10:19;;;;;;;50.40;30.63;;;3.90;99.90;;;;;;5052355;28;20245;-54
2021/12/09 08:12:47;;;;;;;47.90;19.47;;;3.90;99.90;;;;;;5053019;28;20251;-54
2021/12/09 08:15:34;;;;;;;49.03;19.50;;;3.90;99.90;;;;;;5052345;28;20209;-54
2021/12/09 08:18:15;;;;;;;74.13;20.43;;;3.80;99.90;;;;;;5052685;28;20210;-55
2021/12/09 08:20:43;;;;;;;61.67;19.43;;;3.80;99.90;;;;;;5052990;28;20241;-54
2021/12/09 08:23:11;;;;;;;54.33;20.00;;;3.80;99.90;;;;;;5052909;28;20229;-54
2021/12/09 08:25:41;;;;;;;58.20;22.13;;;3.80;99.90;;;;;;5052440;28;20252;-54
2021/12/09 08:28:09;;;;;;;43.33;20.10;;;3.80;99.90;;;;;;5052609;28;20933;-54
2021/12/09 08:30:38;;;;;;;59.63;20.53;;;3.90;99.90;;;;;;5052133;28;20308;-55
2021/12/09 08:33:23;;;;;;;62.03;21.87;;;4.00;99.90;;;;;;5052940;28;20209;-55
2021/12/09 08:35:52;;;;;;;50.17;21.50;;;4.10;99.90;;;;;;5052644;28;20210;-53
2021/12/09 08:38:21;;;;;;;45.87;21.00;;;4.10;99.90;;;;;;5052523;28;20210;-54
2021/12/09 08:40:51;;;;;;;40.87;21.70;;;4.10;99.90;;;;;;5052386;28;20279;-54
2021/12/09 08:43:20;;;;;;;37.30;20.40;;;4.20;99.90;;;;;;5052292;28;20256;-54
2021/12/09 08:45:50;;;;;;;35.57;17.83;;;4.20;99.90;;;;;;5052249;28;20242;-54
2021/12/09 08:48:18;;;;;;;42.97;20.13;;;4.20;99.90;;;;;;5052473;28;20245;-55
2021/12/09 08:50:46;;;;;;;43.20;19.70;;;4.20;99.90;;;;;;5052464;28;20281;-55
2021/12/09 08:53:18;;;;;;;43.10;19.53;;;4.30;99.90;;;;;;5051922;28;20273;-53
2021/12/09 08:55:46;;;;;;;67.97;26.93;;;4.30;99.90;;;;;;5051702;28;20215;-54
2021/12/09 08:58:17;;;;;;;43.83;21.10;;;4.20;99.90;;;;;;5052129;28;20210;-56
2021/12/09 09:00:46;;;;;;;71.63;23.57;;;4.20;99.90;;;;;;5051786;28;20713;-56
2021/12/09 09:03:15;;;;;;;48.17;22.03;;;4.20;99.90;;;;;;5051768;28;20675;-56
2021/12/09 09:05:44;;;;;;;59.27;21.03;;;4.30;99.90;;;;;;5051999;28;20242;-55
2021/12/09 09:08:12;;;;;;;42.87;19.70;;;4.30;99.90;;;;;;5050872;28;20245;-55
2021/12/09 09:10:42;;;;;;;43.83;20.30;;;4.40;99.90;;;;;;5051997;28;20258;-54
2021/12/09 09:13:10;;;;;;;52.50;22.90;;;4.30;99.90;;;;;;5051933;28;20260;-55
2021/12/09 09:15:41;;;;;;;62.13;21.80;;;4.40;99.90;;;;;;5051620;28;20253;-56
2021/12/09 09:18:10;;;;;;;69.03;22.57;;;4.40;99.90;;;;;;5052193;28;20249;-54
2021/12/09 09:20:39;;;;;;;47.07;21.43;;;4.50;99.90;;;;;;5051133;28;20274;-55
2021/12/09 09:23:10;;;;;;;32.37;18.30;;;4.40;99.90;;;;;;5051309;28;20630;-54
2021/12/09 09:25:39;;;;;;;31.23;17.27;;;4.50;99.90;;;;;;5051093;28;20209;-55
2021/12/09 09:28:08;;;;;;;30.67;17.90;;;4.60;99.90;;;;;;5051367;28;20229;-54
2021/12/09 09:30:43;;;;;;;31.97;18.50;;;4.60;99.90;;;;;;5051141;28;20288;-55
2021/12/09 09:33:13;;;;;;;34.23;18.57;;;4.50;99.90;;;;;;5051359;28;20235;-55
2021/12/09 09:35:43;;;;;;;24.97;16.23;;;4.60;99.90;;;;;;5051643;28;20218;-55
2021/12/09 09:38:11;;;;;;;32.20;18.10;;;4.60;99.90;;;;;;5051348;28;20211;-54
2021/12/09 09:40:45;;;;;;;38.03;18.97;;;4.60;99.90;;;;;;5051100;28;20262;-54
2021/12/09 09:43:27;;;;;;;29.70;16.97;;;4.50;99.90;;;;;;5051421;28;20205;-54
2021/12/09 09:46:05;;;;;;;30.60;17.70;;;4.60;99.90;;;;;;5050947;28;20219;-56
2021/12/09 09:48:33;;;;;;;29.97;17.33;;;4.60;99.90;;;;;;5051356;28;20211;-54
2021/12/09 09:51:03;;;;;;;32.17;18.47;;;4.60;99.90;;;;;;5051251;28;20579;-55
2021/12/09 09:53:31;;;;;;;27.27;17.33;;;4.50;99.90;;;;;;5051275;28;20234;-54
2021/12/09 09:55:59;;;;;;;28.93;17.67;;;4.60;99.90;;;;;;5050497;28;20584;-54
2021/12/09 09:58:28;;;;;;;33.87;19.13;;;4.60;99.90;;;;;;5051360;28;20208;-55
2021/12/09 10:00:57;;;;;;;28.00;18.07;;;4.70;99.90;;;;;;5050625;28;20259;-55
2021/12/09 10:03:29;;;;;;;29.13;17.47;;;4.70;99.90;;;;;;5051112;28;20211;-54
2021/12/09 10:06:02;;;;;;;30.47;18.00;;;4.70;99.90;;;;;;5051022;28;20237;-55
2021/12/09 10:08:33;;;;;;;30.13;17.10;;;4.70;99.90;;;;;;5050926;28;20204;-54
2021/12/09 10:11:01;;;;;;;32.90;18.80;;;4.80;99.90;;;;;;5050701;28;20606;-55
2021/12/09 10:13:31;;;;;;;30.13;17.57;;;4.90;99.90;;;;;;5050815;28;20252;-54
2021/12/09 10:16:04;;;;;;;27.63;16.57;;;4.80;99.90;;;;;;5050781;28;20190;-55
2021/12/09 10:18:37;;;;;;;25.73;15.97;;;4.90;99.90;;;;;;5049873;28;20703;-54
2021/12/09 10:21:07;;;;;;;28.00;16.77;;;4.90;99.90;;;;;;5050712;28;20267;-56
2021/12/09 10:23:38;;;;;;;26.80;16.83;;;5.00;99.90;;;;;;5050077;28;20268;-56
2021/12/09 10:26:25;;;;;;;25.23;15.23;;;4.80;99.90;;;;;;5051088;28;20214;-54
2021/12/09 10:29:05;;;;;;;26.10;15.33;;;4.80;99.90;;;;;;5050534;28;20246;-55
2021/12/09 10:31:36;;;;;;;23.90;15.90;;;4.70;99.90;;;;;;5050733;28;20255;-54
2021/12/09 10:34:16;;;;;;;21.97;14.87;;;4.60;99.90;;;;;;5050617;28;20262;-55
2021/12/09 10:36:54;;;;;;;22.67;14.60;;;4.70;99.90;;;;;;5050862;28;20257;-55
2021/12/09 10:39:31;;;;;;;22.70;13.87;;;4.60;99.90;;;;;;5050524;28;20234;-55
2021/12/09 10:42:02;;;;;;;19.90;13.10;;;4.80;99.90;;;;;;5050348;28;20264;-54
2021/12/09 10:44:36;;;;;;;22.77;14.70;;;4.80;99.90;;;;;;5050086;28;20253;-55
2021/12/09 10:47:12;;;;;;;18.10;13.73;;;4.80;99.90;;;;;;5050493;28;20250;-55
2021/12/09 10:50:07;;;;;;;20.43;13.40;;;5.00;99.90;;;;;;5050184;28;20220;-54
2021/12/09 10:52:41;;;;;;;24.03;13.77;;;5.20;99.90;;;;;;5050638;28;20190;-55
2021/12/09 10:55:19;;;;;;;23.67;15.30;;;5.30;99.90;;;;;;5050276;28;20586;-54
2021/12/09 10:57:54;;;;;;;25.67;15.63;;;5.20;99.90;;;;;;5050606;28;20192;-54
2021/12/09 11:00:30;;;;;;;24.13;15.03;;;5.30;99.90;;;;;;5050456;28;20219;-55
2021/12/09 11:03:01;;;;;;;26.30;15.73;;;5.40;99.90;;;;;;5050481;28;20279;-55
2021/12/09 11:05:32;;;;;;;30.00;18.43;;;5.40;99.90;;;;;;5050203;28;20300;-54
2021/12/09 11:08:14;;;;;;;31.57;18.13;;;5.20;99.90;;;;;;5030578;28;20707;-54
2021/12/09 11:10:47;;;;;;;26.10;17.00;;;5.10;99.90;;;;;;5030068;28;20234;-56
2021/12/09 11:13:17;;;;;;;29.73;17.13;;;5.00;99.90;;;;;;5029641;28;20272;-54
2021/12/09 11:15:58;;;;;;;24.50;15.70;;;5.00;99.90;;;;;;5029184;28;20653;-55
2021/12/09 11:18:35;;;;;;;28.47;16.83;;;5.00;99.90;;;;;;5029701;28;20223;-55
2021/12/09 11:21:09;;;;;;;24.70;16.47;;;5.00;99.90;;;;;;5030285;28;20233;-54
2021/12/09 11:23:41;;;;;;;25.87;16.70;;;5.00;99.90;;;;;;5031079;28;20664;-54
2021/12/09 11:26:32;;;;;;;26.73;16.43;;;5.10;99.90;;;;;;5029679;28;20684;-56
2021/12/09 11:29:04;;;;;;;28.27;17.90;;;5.10;99.90;;;;;;5030030;28;20277;-54
2021/12/09 11:31:38;;;;;;;25.73;16.50;;;5.00;99.90;;;;;;5031788;28;20306;-55
2021/12/09 11:34:11;;;;;;;27.00;16.37;;;5.00;99.90;;;;;;5034004;28;20209;-54
2021/12/09 11:36:44;;;;;;;28.10;17.00;;;5.00;99.90;;;;;;5033868;28;20219;-55
2021/12/09 11:39:20;;;;;;;27.57;16.63;;;5.00;99.90;;;;;;5034130;28;20246;-54
2021/12/09 11:41:49;;;;;;;32.90;22.97;;;5.00;99.90;;;;;;5033436;28;20301;-55
2021/12/09 11:44:18;;;;;;;34.23;18.30;;;5.10;99.90;;;;;;5031227;28;20295;-54
2021/12/09 11:46:48;;;;;;;24.80;18.03;;;5.20;99.90;;;;;;5032282;28;20230;-55
2021/12/09 11:49:16;;;;;;;28.80;19.90;;;5.10;99.90;;;;;;5032606;28;20193;-55
2021/12/09 11:51:46;;;;;;;20.93;13.53;;;5.10;99.90;;;;;;5032124;28;20728;-54
2021/12/09 11:54:14;;;;;;;16.87;12.17;;;5.10;99.90;;;;;;5052279;28;20240;-55
2021/12/09 11:56:57;;;;;;;21.33;11.73;;;5.10;99.90;;;;;;5052323;28;20280;-56
2021/12/09 12:11:32;;;;;;;19.13;11.03;;;5.20;99.90;;;;;;5051691;28;20797;-55
2021/12/09 12:14:06;;;;;;;20.07;12.07;;;5.20;99.90;;;;;;5051996;28;20240;-54
2021/12/09 12:19:55;;;;;;;16.53;12.13;;;5.20;99.90;;;;;;5051844;28;20244;-54
2021/12/09 12:23:01;;;;;;;20.90;13.33;;;5.20;99.90;;;;;;5051621;28;20272;-54
2021/12/09 12:28:49;;;;;;;18.40;11.50;;;5.10;99.90;;;;;;5052204;28;20240;-54
2021/12/09 12:32:04;;;;;;;23.27;14.63;;;5.20;99.90;;;;;;5051550;28;20264;-54
2021/12/09 12:35:27;;;;;;;26.53;14.73;;;5.00;99.90;;;;;;5051900;28;20232;-54
2021/12/09 12:38:06;;;;;;;22.07;15.83;;;4.80;99.90;;;;;;5051474;28;20213;-54
2021/12/09 12:40:38;;;;;;;24.77;15.67;;;4.80;99.90;;;;;;5051047;28;20672;-56
2021/12/09 12:43:12;;;;;;;25.60;15.40;;;4.80;99.90;;;;;;5050237;28;20267;-55
2021/12/09 12:46:08;;;;;;;22.67;15.20;;;4.70;99.90;;;;;;5051195;28;20217;-55
2021/12/09 12:49:07;;;;;;;24.93;15.90;;;4.70;99.90;;;;;;5051022;28;20247;-54
2021/12/09 12:51:44;;;;;;;26.97;16.50;;;4.70;99.90;;;;;;5051254;28;20705;-54
2021/12/09 12:54:36;;;;;;;28.03;17.07;;;4.70;99.90;;;;;;5051320;28;20236;-54
2021/12/09 12:57:13;;;;;;;30.50;18.77;;;4.70;99.90;;;;;;5050820;28;20953;-54
2021/12/09 12:59:44;;;;;;;27.83;17.27;;;4.50;99.90;;;;;;5051196;28;20238;-55
2021/12/09 13:05:21;;;;;;;27.40;17.70;;;4.50;99.90;;;;;;5029956;28;20247;-54
2021/12/09 13:08:10;;;;;;;32.40;17.87;;;4.40;99.90;;;;;;5050958;28;20246;-53
2021/12/09 13:11:00;;;;;;;26.73;17.17;;;4.30;99.90;;;;;;5050438;28;20261;-55
2021/12/09 13:13:41;;;;;;;27.27;15.70;;;4.30;99.90;;;;;;5050609;28;20235;-56
2021/12/09 13:16:19;;;;;;;26.60;16.00;;;4.30;99.90;;;;;;5051190;28;20247;-54
2021/12/09 13:19:06;;;;;;;27.20;17.30;;;4.20;99.90;;;;;;5038782;28;20540;-55
2021/12/09 13:21:41;;;;;;;29.90;16.57;;;4.20;99.90;;;;;;5047813;28;20230;-55